If you wish to contribute or participate in the discussions about articles you are invited to join SKYbrary as a registered user

 Actions

Townsville Airport

From SKYbrary Wiki

YBTL
Airport
ICAO: YBTL – IATA: TSV
Summary
Name Townsville Airport
Region Asia and Pacific
Territory "YB" is not in the list (AG, AN, AY, BG, BI, BK, C, CT, DA, DB, ...) of allowed values for the "ICAO Territory" property.
Location , Queensland
Serving Townsville
Elevation 5.486 m
18 ft
18 ft5.486 m
Type medium airport
Coordinates 19° 15' 9.00" S, 146° 45' 55.00" E
Runways
Designator Length Width Surface ROPS
1/19 2438 m7,998.688 ft
45 m147.638 ft
ASP yes/yes
7/25 1100 m3,608.924 ft
30 m98.425 ft
ASP yes/yes


METAR
Observation YBTL 130430Z AUTO 36009KT 9999 // NCD 32/20 Q1007
Station Townsville Amo
Date/Time 13 December 2019 04:30:00
Wind direction 360°
Wind speed 09 kts
Lowest cloud amount no clouds detected
Temperature 32°C
Dew point 20°C
Humidity 49%
QNH 1007 hPa
Weather condition n/a